Effingham, Illinois
Current Conditions -  °F | °C
As of 10:15 AM on Monday 24 Nov 2014 (Local Time) from K1H2 Reporting Station
Overcast Overcast  
Wind Chill: 29°   Ceiling: 2600
Heat Index: 39°   Visibility: 10mi
Dew Point: 29°   Wind: 21mph
Humidity: 67%   Direction: 260°W
Pressure: 29.61"   Gusts: 32mph
Location:  39.12°N, 88.54°W
Report Text: K1H2 241615Z AUTO 26018G28KT 10SM OVC026 04/M02 A2961 RMK AO2 T00401016
Loading
Personal Weather Stations






























Interactive Weather Map New forecast layout! Learn more

10-Day Weather Forecast

Advertisements
Track Severe Weather on mobile